Time;durP1;ratioP1;P1;durP2;ratioP2;P2;SDS_P1;SDS_P2;PMS_P1;PMS_P2;Temp;Humidity;BMP_temperature;BMP_pressure;BME280_temperature;BME280_humidity;BME280_pressure;Samples;Min_cycle;Max_cycle;Signal;HPM_P1;HPM_P2
2022/06/14 00:01:00;;;;;;;0.8;0.8;;;;;;;15.1;100.0;102150;;;;
2022/06/14 00:02:00;;;;;;;0.8;0.8;;;;;;;15.0;100.0;102140;;;;
2022/06/14 00:03:00;;;;;;;0.8;0.8;;;;;;;15.0;100.0;102140;;;;
2022/06/14 00:04:00;;;;;;;0.8;0.8;;;;;;;15.0;100.0;102140;;;;
2022/06/14 00:05:00;;;;;;;0.8;0.8;;;;;;;15.0;100.0;102140;;;;
2022/06/14 00:06:03;;;;;;;0.8;0.8;;;;;;;14.9;100.0;102140;;;;
2022/06/14 00:07:00;;;;;;;0.8;0.8;;;;;;;14.9;100.0;102140;;;;
2022/06/14 00:08:00;;;;;;;0.8;0.8;;;;;;;14.9;100.0;102140;;;;
2022/06/14 00:09:00;;;;;;;0.8;0.8;;;;;;;14.9;100.0;102140;;;;
2022/06/14 00:10:00;;;;;;;0.8;0.8;;;;;;;14.9;100.0;102140;;;;
2022/06/14 00:11:01;;;;;;;0.8;0.8;;;;;;;14.9;100.0;102140;;;;
2022/06/14 00:12:00;;;;;;;0.8;0.8;;;;;;;14.9;100.0;102140;;;;
2022/06/14 00:13:00;;;;;;;0.8;0.8;;;;;;;14.9;100.0;102140;;;;
2022/06/14 00:14:01;;;;;;;0.8;0.8;;;;;;;14.8;100.0;102140;;;;
2022/06/14 00:15:00;;;;;;;0.8;0.8;;;;;;;14.8;100.0;102140;;;;
2022/06/14 00:16:00;;;;;;;0.8;0.8;;;;;;;14.8;100.0;102140;;;;
2022/06/14 00:17:00;;;;;;;0.7;0.7;;;;;;;14.8;100.0;102140;;;;
2022/06/14 00:18:00;;;;;;;0.7;0.7;;;;;;;14.7;100.0;102150;;;;
2022/06/14 00:19:01;;;;;;;0.7;0.7;;;;;;;14.7;100.0;102150;;;;
2022/06/14 00:20:00;;;;;;;0.7;0.7;;;;;;;14.7;100.0;102150;;;;
2022/06/14 00:21:00;;;;;;;0.7;0.7;;;;;;;14.7;100.0;102150;;;;
2022/06/14 00:22:02;;;;;;;0.7;0.7;;;;;;;14.7;100.0;102150;;;;
2022/06/14 00:23:00;;;;;;;0.7;0.7;;;;;;;14.7;100.0;102150;;;;
2022/06/14 00:24:01;;;;;;;0.7;0.7;;;;;;;14.7;100.0;102140;;;;
2022/06/14 00:25:00;;;;;;;0.7;0.7;;;;;;;14.7;100.0;102140;;;;
2022/06/14 00:26:00;;;;;;;0.7;0.7;;;;;;;14.6;100.0;102150;;;;
2022/06/14 00:27:00;;;;;;;0.7;0.7;;;;;;;14.6;100.0;102150;;;;
2022/06/14 00:28:01;;;;;;;0.7;0.7;;;;;;;14.5;100.0;102150;;;;
2022/06/14 00:29:00;;;;;;;0.7;0.7;;;;;;;14.5;100.0;102150;;;;
2022/06/14 00:30:00;;;;;;;0.7;0.7;;;;;;;14.3;100.0;102150;;;;
2022/06/14 00:31:02;;;;;;;0.7;0.7;;;;;;;14.3;100.0;102150;;;;
2022/06/14 00:32:00;;;;;;;0.7;0.7;;;;;;;14.5;100.0;102150;;;;
2022/06/14 00:33:00;;;;;;;0.7;0.7;;;;;;;14.5;100.0;102150;;;;
2022/06/14 00:34:00;;;;;;;0.7;0.7;;;;;;;14.5;100.0;102150;;;;
2022/06/14 00:35:00;;;;;;;0.7;0.7;;;;;;;14.5;100.0;102150;;;;
2022/06/14 00:36:02;;;;;;;0.7;0.7;;;;;;;14.4;100.0;102150;;;;
2022/06/14 00:37:00;;;;;;;0.5;0.5;;;;;;;14.4;100.0;102150;;;;
2022/06/14 00:38:00;;;;;;;0.5;0.5;;;;;;;14.5;100.0;102150;;;;
2022/06/14 00:39:03;;;;;;;0.5;0.5;;;;;;;14.5;100.0;102150;;;;
2022/06/14 00:40:00;;;;;;;0.5;0.5;;;;;;;14.5;100.0;102150;;;;
2022/06/14 00:41:01;;;;;;;0.5;0.5;;;;;;;14.5;100.0;102150;;;;
2022/06/14 00:42:00;;;;;;;0.5;0.5;;;;;;;14.4;100.0;102150;;;;
2022/06/14 00:43:02;;;;;;;0.5;0.5;;;;;;;14.4;100.0;102150;;;;
2022/06/14 00:44:00;;;;;;;0.5;0.5;;;;;;;14.4;100.0;102150;;;;
2022/06/14 00:45:01;;;;;;;0.5;0.5;;;;;;;14.4;100.0;102150;;;;
2022/06/14 00:46:06;;;;;;;0.5;0.5;;;;;;;14.4;100.0;102150;;;;
2022/06/14 00:47:10;;;;;;;0.5;0.5;;;;;;;14.4;100.0;102150;;;;
2022/06/14 00:48:10;;;;;;;0.5;0.5;;;;;;;14.4;100.0;102150;;;;
2022/06/14 00:49:05;;;;;;;0.5;0.5;;;;;;;14.4;100.0;102150;;;;
2022/06/14 00:50:00;;;;;;;0.5;0.5;;;;;;;14.3;100.0;102150;;;;
2022/06/14 00:51:05;;;;;;;0.5;0.5;;;;;;;14.3;100.0;102150;;;;
2022/06/14 00:52:02;;;;;;;0.5;0.5;;;;;;;14.3;100.0;102150;;;;
2022/06/14 00:53:01;;;;;;;0.5;0.5;;;;;;;14.3;100.0;102150;;;;
2022/06/14 00:54:00;;;;;;;0.5;0.5;;;;;;;14.0;100.0;102150;;;;
2022/06/14 00:55:02;;;;;;;0.5;0.5;;;;;;;14.0;100.0;102150;;;;
2022/06/14 00:56:10;;;;;;;1.3;1.2;;;;;;;14.1;100.0;102150;;;;
2022/06/14 00:57:10;;;;;;;1.3;1.2;;;;;;;14.1;100.0;102150;;;;
2022/06/14 00:58:04;;;;;;;1.3;1.2;;;;;;;14.2;100.0;102150;;;;
2022/06/14 00:59:04;;;;;;;1.3;1.2;;;;;;;14.2;100.0;102150;;;;
2022/06/14 01:00:03;;;;;;;1.3;1.2;;;;;;;14.2;100.0;102150;;;;
2022/06/14 01:01:02;;;;;;;1.3;1.2;;;;;;;14.2;100.0;102150;;;;
2022/06/14 01:02:07;;;;;;;1.3;1.2;;;;;;;14.1;100.0;102150;;;;
2022/06/14 01:03:03;;;;;;;1.3;1.2;;;;;;;14.1;100.0;102150;;;;
2022/06/14 01:04:03;;;;;;;1.3;1.2;;;;;;;14.1;100.0;102140;;;;
2022/06/14 01:05:01;;;;;;;1.3;1.2;;;;;;;14.1;100.0;102140;;;;
2022/06/14 01:06:05;;;;;;;1.3;1.2;;;;;;;14.2;100.0;102140;;;;
2022/06/14 01:07:05;;;;;;;1.3;1.2;;;;;;;14.2;100.0;102140;;;;
2022/06/14 01:08:00;;;;;;;1.3;1.2;;;;;;;14.2;100.0;102140;;;;
2022/06/14 01:09:07;;;;;;;1.3;1.2;;;;;;;14.2;100.0;102140;;;;
2022/06/14 01:10:01;;;;;;;1.3;1.2;;;;;;;14.1;100.0;102140;;;;
2022/06/14 01:11:01;;;;;;;1.3;1.2;;;;;;;14.1;100.0;102140;;;;
2022/06/14 01:12:04;;;;;;;1.3;1.2;;;;;;;14.1;100.0;102140;;;;
2022/06/14 01:13:02;;;;;;;1.3;1.2;;;;;;;14.1;100.0;102140;;;;
2022/06/14 01:14:01;;;;;;;1.3;1.2;;;;;;;14.0;100.0;102140;;;;
2022/06/14 01:15:03;;;;;;;1.3;1.2;;;;;;;14.0;100.0;102140;;;;
2022/06/14 01:16:00;;;;;;;1.3;1.2;;;;;;;14.0;100.0;102140;;;;
2022/06/14 01:17:00;;;;;;;0.4;0.4;;;;;;;14.0;100.0;102140;;;;
2022/06/14 01:18:03;;;;;;;0.4;0.4;;;;;;;14.0;100.0;102140;;;;
2022/06/14 01:19:00;;;;;;;0.4;0.4;;;;;;;14.0;100.0;102140;;;;
2022/06/14 01:20:00;;;;;;;0.4;0.4;;;;;;;14.0;100.0;102140;;;;
2022/06/14 01:21:00;;;;;;;0.4;0.4;;;;;;;14.0;100.0;102140;;;;
2022/06/14 01:22:04;;;;;;;0.4;0.4;;;;;;;14.0;100.0;102140;;;;
2022/06/14 01:23:01;;;;;;;0.4;0.4;;;;;;;14.0;100.0;102140;;;;
2022/06/14 01:24:00;;;;;;;0.4;0.4;;;;;;;13.9;100.0;102130;;;;
2022/06/14 01:25:02;;;;;;;0.4;0.4;;;;;;;13.9;100.0;102130;;;;
2022/06/14 01:26:10;;;;;;;0.4;0.4;;;;;;;13.9;100.0;102130;;;;
2022/06/14 01:27:01;;;;;;;0.4;0.4;;;;;;;13.9;100.0;102130;;;;
2022/06/14 01:28:01;;;;;;;0.4;0.4;;;;;;;13.8;100.0;102130;;;;
2022/06/14 01:29:02;;;;;;;0.4;0.4;;;;;;;13.8;100.0;102130;;;;
2022/06/14 01:30:08;;;;;;;0.4;0.4;;;;;;;13.8;100.0;102130;;;;
2022/06/14 01:31:00;;;;;;;0.4;0.4;;;;;;;13.8;100.0;102130;;;;
2022/06/14 01:32:01;;;;;;;0.4;0.4;;;;;;;13.7;100.0;102130;;;;
2022/06/14 01:33:02;;;;;;;0.4;0.4;;;;;;;13.7;100.0;102130;;;;
2022/06/14 01:34:04;;;;;;;0.4;0.4;;;;;;;13.8;100.0;102130;;;;
2022/06/14 01:35:02;;;;;;;0.4;0.4;;;;;;;13.8;100.0;102130;;;;
2022/06/14 01:36:05;;;;;;;0.4;0.4;;;;;;;13.8;100.0;102130;;;;
2022/06/14 01:37:00;;;;;;;0.4;0.4;;;;;;;13.8;100.0;102130;;;;
2022/06/14 01:38:02;;;;;;;0.4;0.4;;;;;;;13.7;100.0;102130;;;;
2022/06/14 01:39:02;;;;;;;0.4;0.4;;;;;;;13.7;100.0;102130;;;;
2022/06/14 01:40:02;;;;;;;0.4;0.4;;;;;;;13.7;100.0;102130;;;;
2022/06/14 01:41:05;;;;;;;0.4;0.4;;;;;;;13.7;100.0;102130;;;;
2022/06/14 01:42:09;;;;;;;0.4;0.4;;;;;;;13.7;100.0;102120;;;;
2022/06/14 01:43:10;;;;;;;0.4;0.4;;;;;;;13.7;100.0;102120;;;;
2022/06/14 01:44:08;;;;;;;0.4;0.4;;;;;;;13.6;100.0;102120;;;;
2022/06/14 01:45:05;;;;;;;0.4;0.4;;;;;;;13.6;100.0;102120;;;;
2022/06/14 01:46:05;;;;;;;0.4;0.4;;;;;;;13.6;100.0;102120;;;;
2022/06/14 01:47:00;;;;;;;0.4;0.4;;;;;;;13.6;100.0;102120;;;;
2022/06/14 01:48:00;;;;;;;0.4;0.4;;;;;;;13.6;100.0;102120;;;;
2022/06/14 01:52:04;;;;;;;0.4;0.4;;;;;;;13.6;100.0;102120;;;;
2022/06/14 01:53:01;;;;;;;0.4;0.4;;;;;;;13.6;100.0;102120;;;;
2022/06/14 01:54:00;;;;;;;0.4;0.4;;;;;;;13.5;100.0;102120;;;;
2022/06/14 01:55:01;;;;;;;0.4;0.4;;;;;;;13.5;100.0;102120;;;;
2022/06/14 01:56:10;;;;;;;0.5;0.5;;;;;;;13.5;100.0;102120;;;;
2022/06/14 01:57:10;;;;;;;0.5;0.5;;;;;;;13.5;100.0;102120;;;;
2022/06/14 01:58:00;;;;;;;0.5;0.5;;;;;;;13.5;100.0;102120;;;;
2022/06/14 01:59:05;;;;;;;0.5;0.5;;;;;;;13.5;100.0;102120;;;;
2022/06/14 02:00:04;;;;;;;0.5;0.5;;;;;;;13.4;100.0;102120;;;;
2022/06/14 02:01:10;;;;;;;0.5;0.5;;;;;;;13.4;100.0;102120;;;;
2022/06/14 02:02:05;;;;;;;0.5;0.5;;;;;;;13.3;100.0;102110;;;;
2022/06/14 02:05:08;;;;;;;0.5;0.5;;;;;;;13.4;100.0;102110;;;;
2022/06/14 02:06:03;;;;;;;0.5;0.5;;;;;;;13.4;100.0;102110;;;;
2022/06/14 02:07:00;;;;;;;0.5;0.5;;;;;;;13.4;100.0;102110;;;;
2022/06/14 02:08:06;;;;;;;0.5;0.5;;;;;;;13.4;100.0;102100;;;;
2022/06/14 02:09:05;;;;;;;0.5;0.5;;;;;;;13.4;100.0;102100;;;;
2022/06/14 02:10:03;;;;;;;0.5;0.5;;;;;;;13.4;100.0;102100;;;;
2022/06/14 02:11:10;;;;;;;0.5;0.5;;;;;;;13.4;100.0;102100;;;;
2022/06/14 02:12:01;;;;;;;0.5;0.5;;;;;;;13.3;100.0;102110;;;;
2022/06/14 02:13:10;;;;;;;0.5;0.5;;;;;;;13.3;100.0;102110;;;;
2022/06/14 02:14:06;;;;;;;0.5;0.5;;;;;;;13.2;100.0;102110;;;;
2022/06/14 02:15:02;;;;;;;0.5;0.5;;;;;;;13.2;100.0;102110;;;;
2022/06/14 02:16:05;;;;;;;0.6;0.6;;;;;;;13.2;100.0;102110;;;;
2022/06/14 02:17:04;;;;;;;0.6;0.6;;;;;;;13.2;100.0;102110;;;;
2022/06/14 02:18:10;;;;;;;0.6;0.6;;;;;;;13.3;100.0;102110;;;;
2022/06/14 02:19:10;;;;;;;0.6;0.6;;;;;;;13.3;100.0;102110;;;;
2022/06/14 02:20:02;;;;;;;0.6;0.6;;;;;;;12.9;100.0;102110;;;;
2022/06/14 02:21:05;;;;;;;0.6;0.6;;;;;;;12.9;100.0;102110;;;;
2022/06/14 02:22:11;;;;;;;0.6;0.6;;;;;;;12.9;100.0;102110;;;;
2022/06/14 02:23:03;;;;;;;0.6;0.6;;;;;;;12.9;100.0;102110;;;;
2022/06/14 02:24:05;;;;;;;0.6;0.6;;;;;;;13.0;100.0;102110;;;;
2022/06/14 02:25:04;;;;;;;0.6;0.6;;;;;;;13.0;100.0;102110;;;;
2022/06/14 02:26:04;;;;;;;0.6;0.6;;;;;;;12.9;100.0;102110;;;;
2022/06/14 02:27:03;;;;;;;0.6;0.6;;;;;;;12.9;100.0;102110;;;;
2022/06/14 02:28:04;;;;;;;0.6;0.6;;;;;;;13.0;100.0;102100;;;;
2022/06/14 02:29:04;;;;;;;0.6;0.6;;;;;;;13.0;100.0;102100;;;;
2022/06/14 02:30:04;;;;;;;0.6;0.6;;;;;;;12.9;100.0;102100;;;;
2022/06/14 02:31:05;;;;;;;0.6;0.6;;;;;;;12.9;100.0;102100;;;;
2022/06/14 02:32:03;;;;;;;0.6;0.6;;;;;;;12.9;100.0;102090;;;;
2022/06/14 02:33:10;;;;;;;0.6;0.6;;;;;;;12.9;100.0;102090;;;;
2022/06/14 02:34:02;;;;;;;0.6;0.6;;;;;;;12.6;100.0;102100;;;;
2022/06/14 02:35:05;;;;;;;0.6;0.6;;;;;;;12.6;100.0;102100;;;;
2022/06/14 02:36:04;;;;;;;0.8;0.8;;;;;;;12.8;100.0;102100;;;;
2022/06/14 02:37:05;;;;;;;0.8;0.8;;;;;;;12.8;100.0;102100;;;;
2022/06/14 02:38:10;;;;;;;0.8;0.8;;;;;;;12.9;100.0;102100;;;;
2022/06/14 02:39:04;;;;;;;0.8;0.8;;;;;;;12.9;100.0;102100;;;;
2022/06/14 02:40:04;;;;;;;0.8;0.8;;;;;;;12.7;100.0;102100;;;;
2022/06/14 02:41:03;;;;;;;0.8;0.8;;;;;;;12.7;100.0;102100;;;;
2022/06/14 02:42:04;;;;;;;0.8;0.8;;;;;;;12.8;100.0;102090;;;;
2022/06/14 02:43:00;;;;;;;0.8;0.8;;;;;;;12.8;100.0;102090;;;;
2022/06/14 02:44:04;;;;;;;0.8;0.8;;;;;;;12.7;100.0;102090;;;;
2022/06/14 02:45:06;;;;;;;0.8;0.8;;;;;;;12.7;100.0;102090;;;;
2022/06/14 02:46:10;;;;;;;0.8;0.8;;;;;;;12.6;100.0;102090;;;;
2022/06/14 02:47:04;;;;;;;0.8;0.8;;;;;;;12.6;100.0;102090;;;;
2022/06/14 02:48:07;;;;;;;0.8;0.8;;;;;;;12.7;100.0;102100;;;;
2022/06/14 02:49:04;;;;;;;0.8;0.8;;;;;;;12.7;100.0;102100;;;;
2022/06/14 02:50:05;;;;;;;0.8;0.8;;;;;;;12.7;100.0;102090;;;;
2022/06/14 02:51:04;;;;;;;0.8;0.8;;;;;;;12.7;100.0;102090;;;;
2022/06/14 02:52:04;;;;;;;0.8;0.8;;;;;;;12.6;100.0;102090;;;;
2022/06/14 02:53:02;;;;;;;0.8;0.8;;;;;;;12.6;100.0;102090;;;;
2022/06/14 02:54:05;;;;;;;0.8;0.8;;;;;;;12.6;100.0;102090;;;;
2022/06/14 02:55:03;;;;;;;0.8;0.8;;;;;;;12.6;100.0;102090;;;;
2022/06/14 02:56:00;;;;;;;0.7;0.7;;;;;;;12.4;100.0;102090;;;;
2022/06/14 02:57:10;;;;;;;0.7;0.7;;;;;;;12.4;100.0;102090;;;;
2022/06/14 02:58:03;;;;;;;0.7;0.7;;;;;;;12.5;100.0;102090;;;;
2022/06/14 02:59:00;;;;;;;0.7;0.7;;;;;;;12.5;100.0;102090;;;;
2022/06/14 03:00:04;;;;;;;0.7;0.7;;;;;;;12.6;100.0;102100;;;;
2022/06/14 03:01:00;;;;;;;0.7;0.7;;;;;;;12.6;100.0;102100;;;;
2022/06/14 03:02:02;;;;;;;0.7;0.7;;;;;;;12.5;100.0;102090;;;;
2022/06/14 03:03:08;;;;;;;0.7;0.7;;;;;;;12.5;100.0;102090;;;;
2022/06/14 03:04:06;;;;;;;0.7;0.7;;;;;;;12.4;100.0;102090;;;;
2022/06/14 03:05:07;;;;;;;0.7;0.7;;;;;;;12.4;100.0;102090;;;;
2022/06/14 03:06:06;;;;;;;0.7;0.7;;;;;;;12.2;100.0;102090;;;;
2022/06/14 03:07:10;;;;;;;0.7;0.7;;;;;;;12.2;100.0;102090;;;;
2022/06/14 03:08:03;;;;;;;0.7;0.7;;;;;;;12.4;100.0;102090;;;;
2022/06/14 03:09:00;;;;;;;0.7;0.7;;;;;;;12.4;100.0;102090;;;;
2022/06/14 03:10:00;;;;;;;0.7;0.7;;;;;;;12.1;100.0;102090;;;;
2022/06/14 03:11:03;;;;;;;0.7;0.7;;;;;;;12.1;100.0;102090;;;;
2022/06/14 03:12:11;;;;;;;0.7;0.7;;;;;;;12.1;100.0;102090;;;;
2022/06/14 03:13:00;;;;;;;0.7;0.7;;;;;;;12.1;100.0;102090;;;;
2022/06/14 03:14:10;;;;;;;0.7;0.7;;;;;;;12.1;100.0;102090;;;;
2022/06/14 03:15:10;;;;;;;0.7;0.7;;;;;;;12.1;100.0;102090;;;;
2022/06/14 03:16:09;;;;;;;0.9;0.9;;;;;;;12.3;100.0;102090;;;;
2022/06/14 03:17:07;;;;;;;0.9;0.9;;;;;;;12.3;100.0;102090;;;;
2022/06/14 03:18:10;;;;;;;0.9;0.9;;;;;;;12.3;100.0;102090;;;;
2022/06/14 03:19:10;;;;;;;0.9;0.9;;;;;;;12.3;100.0;102090;;;;
2022/06/14 03:20:10;;;;;;;0.9;0.9;;;;;;;12.4;100.0;102090;;;;
2022/06/14 03:21:07;;;;;;;0.9;0.9;;;;;;;12.4;100.0;102090;;;;
2022/06/14 03:22:06;;;;;;;0.9;0.9;;;;;;;12.3;100.0;102090;;;;
2022/06/14 03:23:10;;;;;;;0.9;0.9;;;;;;;12.3;100.0;102090;;;;
2022/06/14 03:24:05;;;;;;;0.9;0.9;;;;;;;12.2;100.0;102090;;;;
2022/06/14 03:25:03;;;;;;;0.9;0.9;;;;;;;12.2;100.0;102090;;;;
2022/06/14 03:26:07;;;;;;;0.9;0.9;;;;;;;12.1;100.0;102090;;;;
2022/06/14 03:27:10;;;;;;;0.9;0.9;;;;;;;12.1;100.0;102090;;;;
2022/06/14 03:28:04;;;;;;;0.9;0.9;;;;;;;12.2;100.0;102100;;;;
2022/06/14 03:29:10;;;;;;;0.9;0.9;;;;;;;12.2;100.0;102100;;;;
2022/06/14 03:30:01;;;;;;;0.9;0.9;;;;;;;12.2;100.0;102090;;;;
2022/06/14 03:31:05;;;;;;;0.9;0.9;;;;;;;12.2;100.0;102090;;;;
2022/06/14 03:32:07;;;;;;;0.9;0.9;;;;;;;12.2;100.0;102100;;;;
2022/06/14 03:33:01;;;;;;;0.9;0.9;;;;;;;12.2;100.0;102100;;;;
2022/06/14 03:34:10;;;;;;;0.9;0.9;;;;;;;12.1;100.0;102090;;;;
2022/06/14 03:35:04;;;;;;;0.9;0.9;;;;;;;12.1;100.0;102090;;;;
2022/06/14 03:36:00;;;;;;;0.7;0.7;;;;;;;12.0;100.0;102090;;;;
2022/06/14 03:37:00;;;;;;;0.7;0.7;;;;;;;12.0;100.0;102090;;;;
2022/06/14 03:38:03;;;;;;;0.7;0.7;;;;;;;12.2;100.0;102090;;;;
2022/06/14 03:39:10;;;;;;;0.7;0.7;;;;;;;12.2;100.0;102090;;;;
2022/06/14 03:40:03;;;;;;;0.7;0.7;;;;;;;12.2;100.0;102090;;;;
2022/06/14 03:41:00;;;;;;;0.7;0.7;;;;;;;12.2;100.0;102090;;;;
2022/06/14 03:42:03;;;;;;;0.7;0.7;;;;;;;12.2;100.0;102090;;;;
2022/06/14 03:43:01;;;;;;;0.7;0.7;;;;;;;12.2;100.0;102090;;;;
2022/06/14 03:44:01;;;;;;;0.7;0.7;;;;;;;12.2;100.0;102090;;;;
2022/06/14 03:45:02;;;;;;;0.7;0.7;;;;;;;12.2;100.0;102090;;;;
2022/06/14 03:46:04;;;;;;;0.7;0.7;;;;;;;12.0;100.0;102100;;;;
2022/06/14 03:47:10;;;;;;;0.7;0.7;;;;;;;12.0;100.0;102100;;;;
2022/06/14 03:48:02;;;;;;;0.7;0.7;;;;;;;12.0;100.0;102100;;;;
2022/06/14 03:49:10;;;;;;;0.7;0.7;;;;;;;12.0;100.0;102100;;;;
2022/06/14 03:50:03;;;;;;;0.7;0.7;;;;;;;12.0;100.0;102100;;;;
2022/06/14 03:51:10;;;;;;;0.7;0.7;;;;;;;12.0;100.0;102100;;;;
2022/06/14 03:52:07;;;;;;;0.7;0.7;;;;;;;12.1;100.0;102090;;;;
2022/06/14 03:53:09;;;;;;;0.7;0.7;;;;;;;12.1;100.0;102090;;;;
2022/06/14 03:54:10;;;;;;;0.7;0.7;;;;;;;12.1;100.0;102100;;;;
2022/06/14 03:55:10;;;;;;;0.7;0.7;;;;;;;12.1;100.0;102100;;;;
2022/06/14 03:56:09;;;;;;;0.6;0.6;;;;;;;12.1;100.0;102090;;;;
2022/06/14 03:57:03;;;;;;;0.6;0.6;;;;;;;12.1;100.0;102090;;;;
2022/06/14 03:58:10;;;;;;;0.6;0.6;;;;;;;12.0;100.0;102090;;;;
2022/06/14 03:59:10;;;;;;;0.6;0.6;;;;;;;12.0;100.0;102090;;;;
2022/06/14 04:00:07;;;;;;;0.6;0.6;;;;;;;12.0;100.0;102090;;;;
2022/06/14 04:01:08;;;;;;;0.6;0.6;;;;;;;12.0;100.0;102090;;;;
2022/06/14 04:02:06;;;;;;;0.6;0.6;;;;;;;12.0;100.0;102090;;;;
2022/06/14 04:03:10;;;;;;;0.6;0.6;;;;;;;12.0;100.0;102090;;;;
2022/06/14 04:04:10;;;;;;;0.6;0.6;;;;;;;12.1;100.0;102090;;;;
2022/06/14 04:05:06;;;;;;;0.6;0.6;;;;;;;12.1;100.0;102090;;;;
2022/06/14 04:06:10;;;;;;;0.6;0.6;;;;;;;12.0;100.0;102090;;;;
2022/06/14 04:07:10;;;;;;;0.6;0.6;;;;;;;12.0;100.0;102090;;;;
2022/06/14 04:08:01;;;;;;;0.6;0.6;;;;;;;11.9;100.0;102100;;;;
2022/06/14 04:09:10;;;;;;;0.6;0.6;;;;;;;11.9;100.0;102100;;;;
2022/06/14 04:10:01;;;;;;;0.6;0.6;;;;;;;11.9;100.0;102090;;;;
2022/06/14 04:11:00;;;;;;;0.6;0.6;;;;;;;11.9;100.0;102090;;;;
2022/06/14 04:12:11;;;;;;;0.6;0.6;;;;;;;11.7;100.0;102090;;;;
2022/06/14 04:13:00;;;;;;;0.6;0.6;;;;;;;11.7;100.0;102090;;;;
2022/06/14 04:14:10;;;;;;;0.6;0.6;;;;;;;11.8;100.0;102100;;;;
2022/06/14 04:15:05;;;;;;;0.6;0.6;;;;;;;11.8;100.0;102100;;;;
2022/06/14 04:16:10;;;;;;;0.7;0.7;;;;;;;11.9;100.0;102100;;;;
2022/06/14 04:17:01;;;;;;;0.7;0.7;;;;;;;11.9;100.0;102100;;;;
2022/06/14 04:18:34;;;;;;;0.7;0.7;;;;;;;12.0;100.0;102100;;;;
2022/06/14 04:19:10;;;;;;;0.7;0.7;;;;;;;12.0;100.0;102100;;;;
2022/06/14 04:20:06;;;;;;;0.7;0.7;;;;;;;12.1;100.0;102100;;;;
2022/06/14 04:21:10;;;;;;;0.7;0.7;;;;;;;12.1;100.0;102100;;;;
2022/06/14 04:22:10;;;;;;;0.7;0.7;;;;;;;12.1;100.0;102100;;;;
2022/06/14 04:23:10;;;;;;;0.7;0.7;;;;;;;12.1;100.0;102100;;;;
2022/06/14 04:24:07;;;;;;;0.7;0.7;;;;;;;12.1;100.0;102100;;;;
2022/06/14 04:25:04;;;;;;;0.7;0.7;;;;;;;12.1;100.0;102100;;;;
2022/06/14 04:26:00;;;;;;;0.7;0.7;;;;;;;12.1;100.0;102110;;;;
2022/06/14 04:27:00;;;;;;;0.7;0.7;;;;;;;12.1;100.0;102110;;;;
2022/06/14 04:28:01;;;;;;;0.7;0.7;;;;;;;12.1;100.0;102110;;;;
2022/06/14 04:29:05;;;;;;;0.7;0.7;;;;;;;12.1;100.0;102110;;;;
2022/06/14 04:30:01;;;;;;;0.7;0.7;;;;;;;12.1;100.0;102110;;;;
2022/06/14 04:31:05;;;;;;;0.7;0.7;;;;;;;12.1;100.0;102110;;;;
2022/06/14 04:32:04;;;;;;;0.7;0.7;;;;;;;12.1;100.0;102110;;;;
2022/06/14 04:33:08;;;;;;;0.7;0.7;;;;;;;12.1;100.0;102110;;;;
2022/06/14 04:34:10;;;;;;;0.7;0.7;;;;;;;12.1;100.0;102110;;;;
2022/06/14 04:35:04;;;;;;;0.7;0.7;;;;;;;12.1;100.0;102110;;;;
2022/06/14 04:36:05;;;;;;;0.6;0.6;;;;;;;12.1;100.0;102110;;;;
2022/06/14 04:37:10;;;;;;;0.6;0.6;;;;;;;12.1;100.0;102110;;;;
2022/06/14 04:38:02;;;;;;;0.6;0.6;;;;;;;12.2;100.0;102110;;;;
2022/06/14 04:39:04;;;;;;;0.6;0.6;;;;;;;12.2;100.0;102110;;;;
2022/06/14 04:40:03;;;;;;;0.6;0.6;;;;;;;12.2;100.0;102110;;;;
2022/06/14 04:41:03;;;;;;;0.6;0.6;;;;;;;12.2;100.0;102110;;;;
2022/06/14 04:42:02;;;;;;;0.6;0.6;;;;;;;12.1;100.0;102110;;;;
2022/06/14 04:43:03;;;;;;;0.6;0.6;;;;;;;12.1;100.0;102110;;;;
2022/06/14 04:44:10;;;;;;;0.6;0.6;;;;;;;12.1;100.0;102110;;;;
2022/06/14 04:45:05;;;;;;;0.6;0.6;;;;;;;12.1;100.0;102110;;;;
2022/06/14 04:46:06;;;;;;;0.6;0.6;;;;;;;12.2;100.0;102110;;;;
2022/06/14 04:47:05;;;;;;;0.6;0.6;;;;;;;12.2;100.0;102110;;;;
2022/06/14 04:48:00;;;;;;;0.6;0.6;;;;;;;12.2;100.0;102110;;;;
2022/06/14 04:49:10;;;;;;;0.6;0.6;;;;;;;12.2;100.0;102110;;;;
2022/06/14 04:50:04;;;;;;;0.6;0.6;;;;;;;12.2;100.0;102110;;;;
2022/06/14 04:51:04;;;;;;;0.6;0.6;;;;;;;12.2;100.0;102110;;;;
2022/06/14 04:52:04;;;;;;;0.6;0.6;;;;;;;12.2;100.0;102120;;;;
2022/06/14 04:53:03;;;;;;;0.6;0.6;;;;;;;12.2;100.0;102120;;;;
2022/06/14 04:54:01;;;;;;;0.6;0.6;;;;;;;12.2;100.0;102120;;;;
2022/06/14 04:55:02;;;;;;;0.6;0.6;;;;;;;12.2;100.0;102120;;;;
2022/06/14 04:56:02;;;;;;;0.9;0.9;;;;;;;12.2;100.0;102120;;;;
2022/06/14 04:57:05;;;;;;;0.9;0.9;;;;;;;12.2;100.0;102120;;;;
2022/06/14 04:58:06;;;;;;;0.9;0.9;;;;;;;12.3;100.0;102120;;;;
2022/06/14 04:59:13;;;;;;;0.9;0.9;;;;;;;12.3;100.0;102120;;;;
2022/06/14 05:00:09;;;;;;;0.9;0.9;;;;;;;12.4;100.0;102110;;;;
2022/06/14 05:01:03;;;;;;;0.9;0.9;;;;;;;12.4;100.0;102110;;;;
2022/06/14 05:02:06;;;;;;;0.9;0.9;;;;;;;12.4;100.0;102110;;;;
2022/06/14 05:03:10;;;;;;;0.9;0.9;;;;;;;12.4;100.0;102110;;;;
2022/06/14 05:04:00;;;;;;;0.9;0.9;;;;;;;12.4;100.0;102110;;;;
2022/06/14 05:05:05;;;;;;;0.9;0.9;;;;;;;12.4;100.0;102110;;;;
2022/06/14 05:06:02;;;;;;;0.9;0.9;;;;;;;12.4;100.0;102110;;;;
2022/06/14 05:07:04;;;;;;;0.9;0.9;;;;;;;12.4;100.0;102110;;;;
2022/06/14 05:08:06;;;;;;;0.9;0.9;;;;;;;12.6;100.0;102120;;;;
2022/06/14 05:09:02;;;;;;;0.9;0.9;;;;;;;12.6;100.0;102120;;;;
2022/06/14 05:10:04;;;;;;;0.9;0.9;;;;;;;12.8;100.0;102110;;;;
2022/06/14 05:11:05;;;;;;;0.9;0.9;;;;;;;12.8;100.0;102110;;;;
2022/06/14 05:12:10;;;;;;;0.9;0.9;;;;;;;12.7;100.0;102110;;;;
2022/06/14 05:13:00;;;;;;;0.9;0.9;;;;;;;12.7;100.0;102110;;;;
2022/06/14 05:14:03;;;;;;;0.9;0.9;;;;;;;12.8;100.0;102110;;;;
2022/06/14 05:15:10;;;;;;;0.9;0.9;;;;;;;12.8;100.0;102110;;;;
2022/06/14 05:16:11;;;;;;;0.6;0.6;;;;;;;12.8;100.0;102110;;;;
2022/06/14 05:17:07;;;;;;;0.6;0.6;;;;;;;12.8;100.0;102110;;;;
2022/06/14 05:18:00;;;;;;;0.6;0.6;;;;;;;12.9;100.0;102110;;;;
2022/06/14 05:19:09;;;;;;;0.6;0.6;;;;;;;12.9;100.0;102110;;;;
2022/06/14 05:20:10;;;;;;;0.6;0.6;;;;;;;12.9;100.0;102120;;;;
2022/06/14 05:21:01;;;;;;;0.6;0.6;;;;;;;12.9;100.0;102120;;;;
2022/06/14 05:22:08;;;;;;;0.6;0.6;;;;;;;12.9;100.0;102120;;;;
2022/06/14 05:23:10;;;;;;;0.6;0.6;;;;;;;12.9;100.0;102120;;;;
2022/06/14 05:24:01;;;;;;;0.6;0.6;;;;;;;13.0;100.0;102130;;;;
2022/06/14 05:25:00;;;;;;;0.6;0.6;;;;;;;13.0;100.0;102130;;;;
2022/06/14 05:26:07;;;;;;;0.6;0.6;;;;;;;13.0;100.0;102130;;;;
2022/06/14 05:27:07;;;;;;;0.6;0.6;;;;;;;13.0;100.0;102130;;;;
2022/06/14 05:28:05;;;;;;;0.6;0.6;;;;;;;13.1;100.0;102130;;;;
2022/06/14 05:29:10;;;;;;;0.6;0.6;;;;;;;13.1;100.0;102130;;;;
2022/06/14 05:30:10;;;;;;;0.6;0.6;;;;;;;13.2;100.0;102120;;;;
2022/06/14 05:31:10;;;;;;;0.6;0.6;;;;;;;13.2;100.0;102120;;;;
2022/06/14 05:32:10;;;;;;;0.6;0.6;;;;;;;13.2;100.0;102130;;;;
2022/06/14 05:33:10;;;;;;;0.6;0.6;;;;;;;13.2;100.0;102130;;;;
2022/06/14 05:34:10;;;;;;;0.6;0.6;;;;;;;13.2;100.0;102130;;;;
2022/06/14 05:35:10;;;;;;;0.6;0.6;;;;;;;13.2;100.0;102130;;;;
2022/06/14 05:36:04;;;;;;;0.4;0.4;;;;;;;13.4;100.0;102130;;;;
2022/06/14 05:37:00;;;;;;;0.4;0.4;;;;;;;13.4;100.0;102130;;;;
2022/06/14 05:38:08;;;;;;;0.4;0.4;;;;;;;13.4;100.0;102130;;;;
2022/06/14 05:39:06;;;;;;;0.4;0.4;;;;;;;13.4;100.0;102130;;;;
2022/06/14 05:40:08;;;;;;;0.4;0.4;;;;;;;13.4;100.0;102130;;;;
2022/06/14 05:41:03;;;;;;;0.4;0.4;;;;;;;13.4;100.0;102130;;;;
2022/06/14 05:42:05;;;;;;;0.4;0.4;;;;;;;13.5;100.0;102130;;;;
2022/06/14 05:43:10;;;;;;;0.4;0.4;;;;;;;13.5;100.0;102130;;;;
2022/06/14 05:44:09;;;;;;;0.4;0.4;;;;;;;13.7;100.0;102130;;;;
2022/06/14 05:45:01;;;;;;;0.4;0.4;;;;;;;13.7;100.0;102130;;;;
2022/06/14 05:46:10;;;;;;;0.4;0.4;;;;;;;13.6;100.0;102130;;;;
2022/06/14 05:47:04;;;;;;;0.4;0.4;;;;;;;13.6;100.0;102130;;;;
2022/06/14 05:48:04;;;;;;;0.4;0.4;;;;;;;13.8;100.0;102130;;;;
2022/06/14 05:49:04;;;;;;;0.4;0.4;;;;;;;13.8;100.0;102130;;;;
2022/06/14 05:50:01;;;;;;;0.4;0.4;;;;;;;13.8;100.0;102130;;;;
2022/06/14 05:51:00;;;;;;;0.4;0.4;;;;;;;13.8;100.0;102130;;;;
2022/06/14 05:52:04;;;;;;;0.4;0.4;;;;;;;14.0;100.0;102130;;;;
2022/06/14 05:53:10;;;;;;;0.4;0.4;;;;;;;14.0;100.0;102130;;;;
2022/06/14 05:54:07;;;;;;;0.4;0.4;;;;;;;14.0;100.0;102130;;;;
2022/06/14 05:55:08;;;;;;;0.4;0.4;;;;;;;14.0;100.0;102130;;;;
2022/06/14 05:56:10;;;;;;;0.5;0.5;;;;;;;14.1;100.0;102130;;;;
2022/06/14 05:57:04;;;;;;;0.5;0.5;;;;;;;14.1;100.0;102130;;;;
2022/06/14 05:58:04;;;;;;;0.5;0.5;;;;;;;14.2;100.0;102130;;;;
2022/06/14 05:59:00;;;;;;;0.5;0.5;;;;;;;14.2;100.0;102130;;;;
2022/06/14 06:00:04;;;;;;;0.5;0.5;;;;;;;14.2;100.0;102130;;;;
2022/06/14 06:01:11;;;;;;;0.5;0.5;;;;;;;14.2;100.0;102130;;;;
2022/06/14 06:02:04;;;;;;;0.5;0.5;;;;;;;14.5;100.0;102130;;;;
2022/06/14 06:03:10;;;;;;;0.5;0.5;;;;;;;14.5;100.0;102130;;;;
2022/06/14 06:04:10;;;;;;;0.5;0.5;;;;;;;14.6;100.0;102140;;;;
2022/06/14 06:05:05;;;;;;;0.5;0.5;;;;;;;14.6;100.0;102140;;;;
2022/06/14 06:06:07;;;;;;;0.5;0.5;;;;;;;14.7;100.0;102140;;;;
2022/06/14 06:07:03;;;;;;;0.5;0.5;;;;;;;14.7;100.0;102140;;;;
2022/06/14 06:08:05;;;;;;;0.5;0.5;;;;;;;14.9;100.0;102140;;;;
2022/06/14 06:09:03;;;;;;;0.5;0.5;;;;;;;14.9;100.0;102140;;;;
2022/06/14 06:10:07;;;;;;;0.5;0.5;;;;;;;15.0;100.0;102130;;;;
2022/06/14 06:11:09;;;;;;;0.5;0.5;;;;;;;15.0;100.0;102130;;;;
2022/06/14 06:12:05;;;;;;;0.5;0.5;;;;;;;15.0;100.0;102130;;;;
2022/06/14 06:13:08;;;;;;;0.5;0.5;;;;;;;15.0;100.0;102130;;;;
2022/06/14 06:14:06;;;;;;;0.5;0.5;;;;;;;15.1;100.0;102130;;;;
2022/06/14 06:15:04;;;;;;;0.5;0.5;;;;;;;15.1;100.0;102130;;;;
2022/06/14 06:16:04;;;;;;;0.4;0.4;;;;;;;15.2;100.0;102130;;;;
2022/06/14 06:17:04;;;;;;;0.4;0.4;;;;;;;15.2;100.0;102130;;;;
2022/06/14 06:18:04;;;;;;;0.4;0.4;;;;;;;15.3;100.0;102130;;;;
2022/06/14 06:19:05;;;;;;;0.4;0.4;;;;;;;15.3;100.0;102130;;;;
2022/06/14 06:20:13;;;;;;;0.4;0.4;;;;;;;15.3;100.0;102130;;;;
2022/06/14 06:21:10;;;;;;;0.4;0.4;;;;;;;15.3;100.0;102130;;;;
2022/06/14 06:22:06;;;;;;;0.4;0.4;;;;;;;15.4;100.0;102140;;;;
2022/06/14 06:23:06;;;;;;;0.4;0.4;;;;;;;15.4;100.0;102140;;;;
2022/06/14 06:24:07;;;;;;;0.4;0.4;;;;;;;15.4;100.0;102130;;;;
2022/06/14 06:25:04;;;;;;;0.4;0.4;;;;;;;15.4;100.0;102130;;;;
2022/06/14 06:26:00;;;;;;;0.4;0.4;;;;;;;15.5;100.0;102130;;;;
2022/06/14 06:27:03;;;;;;;0.4;0.4;;;;;;;15.5;100.0;102130;;;;
2022/06/14 06:28:03;;;;;;;0.4;0.4;;;;;;;15.6;100.0;102130;;;;